首页
METAR-TAF:

METAR-TAF

机场 :

布赖顿, 英格兰

纬度: 50-50N, 经度: 000-17W, 海拔: 2米

当前天气观测

该预报发布于12小时和15分钟前的18:50 UTC
风速3节,风向西
温度 8°C
湿度 87%
气压 1003 hPa
能见度10公里或以上
1500米以下无云,无积雨云

METAR: EGKA 191850Z 28003KT CAVOK 08/06 Q1003

时间: 08:05 (07:05 UTC)

预报

该预报发布于17小时和8分钟前的13:57 UTC
预报有效从19日的 15点(UTC)到 19日的 19点(UTC)
风速8节,风向西南
能见度10公里或以上
散云层高于2500英尺

TAF: EGKA 191357Z 1915/1919 23008KT 9999 SCT025

超过4000个机场的气象观测和天气预报(METAR&TAF报告)。

可查询的气象台以黄色和红色小点在地图上表示。

将鼠标移到小点上方,可查看气象台名称。

然后点击查看天气观测和预报。

如需切换地图:点击带黑十字的绿色按钮放大地图;点击带横线的绿色按钮缩小地图;或者点击绿色箭头查看邻近地区的地图。


METAR-TAF: